Time;durP1;ratioP1;P1;durP2;ratioP2;P2;SDS_P1;SDS_P2;PMS_P1;PMS_P2;Temp;Humidity;BMP_temperature;BMP_pressure;BME280_temperature;BME280_humidity;BME280_pressure;Samples;Min_cycle;Max_cycle;Signal;HPM_P1;HPM_P2
2022/11/29 00:00:14;;;;;;;2.00;1.80;;;19.90;43.50;;;;;;5112106;28;20050;-9
2022/11/29 00:02:43;;;;;;;2.20;1.90;;;19.90;43.50;;;;;;5111328;28;20051;-9
2022/11/29 00:05:08;;;;;;;1.73;1.63;;;19.90;43.50;;;;;;5112096;28;20048;-10
2022/11/29 00:07:34;;;;;;;2.10;1.90;;;19.90;43.50;;;;;;5112206;28;20400;-9
2022/11/29 00:09:59;;;;;;;1.73;1.50;;;20.00;44.00;;;;;;5113120;28;20064;-9
2022/11/29 00:12:25;;;;;;;2.08;1.88;;;19.90;43.50;;;;;;5115521;28;20506;-10
2022/11/29 00:14:51;;;;;;;2.00;1.75;;;19.90;43.50;;;;;;5115307;28;20066;-10
2022/11/29 00:17:17;;;;;;;1.80;1.70;;;19.90;43.50;;;;;;5115211;28;20052;-9
2022/11/29 00:19:44;;;;;;;2.05;1.85;;;19.90;43.50;;;;;;5115121;28;20453;-9
2022/11/29 00:22:09;;;;;;;2.00;1.80;;;19.90;43.50;;;;;;5115442;28;20047;-10
2022/11/29 00:24:35;;;;;;;1.95;1.80;;;19.90;43.50;;;;;;5115445;28;20052;-10
2022/11/29 00:27:01;;;;;;;2.83;1.80;;;19.90;43.50;;;;;;5115285;28;20055;-10
2022/11/29 00:29:28;;;;;;;2.10;1.95;;;19.90;43.50;;;;;;5096709;28;20082;-10
2022/11/29 00:31:54;;;;;;;1.70;1.60;;;19.90;43.50;;;;;;5115662;28;20059;-10
2022/11/29 00:34:20;;;;;;;2.30;2.10;;;19.90;43.50;;;;;;5115605;28;20064;-10
2022/11/29 00:36:45;;;;;;;2.80;2.33;;;19.90;43.50;;;;;;5115335;28;20040;-10
2022/11/29 00:39:11;;;;;;;2.05;1.88;;;19.90;43.50;;;;;;5115258;28;20048;-10
2022/11/29 00:41:37;;;;;;;2.08;1.67;;;19.90;43.50;;;;;;5115403;28;20132;-10
2022/11/29 00:44:03;;;;;;;2.10;1.88;;;19.90;43.50;;;;;;5115737;28;20475;-10
2022/11/29 00:46:28;;;;;;;1.77;1.55;;;19.90;43.60;;;;;;5114920;28;20077;-9
2022/11/29 00:48:54;;;;;;;1.88;1.73;;;19.90;43.50;;;;;;5115267;28;20085;-10
2022/11/29 00:51:20;;;;;;;2.20;2.00;;;19.90;43.60;;;;;;5115398;28;20092;-10
2022/11/29 00:53:45;;;;;;;2.40;2.20;;;19.90;43.50;;;;;;5114953;28;20100;-10
2022/11/29 00:56:11;;;;;;;2.20;1.75;;;19.90;43.50;;;;;;5096114;28;20097;-9
2022/11/29 00:58:36;;;;;;;1.95;1.75;;;19.90;43.60;;;;;;5114753;28;20054;-10
2022/11/29 01:01:03;;;;;;;1.80;1.70;;;19.90;43.50;;;;;;5114846;28;20425;-10
2022/11/29 01:03:28;;;;;;;1.80;1.67;;;19.90;43.50;;;;;;5115118;28;20059;-9
2022/11/29 01:06:04;;;;;;;1.75;1.65;;;19.90;43.50;;;;;;5114809;28;20142;-9
2022/11/29 01:08:29;;;;;;;1.73;1.63;;;19.90;43.50;;;;;;5114614;28;20470;-9
2022/11/29 01:11:24;;;;;;;2.38;2.00;;;19.90;43.50;;;;;;5115020;28;20071;-10
2022/11/29 01:13:56;;;;;;;2.17;1.92;;;19.90;43.50;;;;;;5112223;28;20043;-10
2022/11/29 01:16:23;;;;;;;1.73;1.60;;;19.90;43.50;;;;;;5114642;28;20140;-10
2022/11/29 01:18:49;;;;;;;1.55;1.45;;;19.90;43.40;;;;;;5114646;28;20082;-10
2022/11/29 01:21:18;;;;;;;1.98;1.80;;;19.90;43.50;;;;;;5113527;28;20048;-10
2022/11/29 01:23:44;;;;;;;1.90;1.80;;;19.90;43.50;;;;;;5114392;28;20044;-10
2022/11/29 01:26:13;;;;;;;1.80;1.70;;;19.90;43.50;;;;;;5114746;28;20556;-10
2022/11/29 01:28:39;;;;;;;2.33;1.90;;;19.90;43.40;;;;;;5114226;28;20043;-10
2022/11/29 01:31:06;;;;;;;1.85;1.75;;;19.90;43.40;;;;;;5114346;28;20124;-10
2022/11/29 01:33:33;;;;;;;2.13;1.90;;;19.90;43.40;;;;;;5114345;28;20052;-10
2022/11/29 01:35:58;;;;;;;1.80;1.63;;;19.90;43.50;;;;;;5114650;28;20066;-9
2022/11/29 01:38:24;;;;;;;1.90;1.70;;;19.90;43.50;;;;;;5094475;28;20048;-10
2022/11/29 01:40:57;;;;;;;2.08;1.90;;;19.90;43.50;;;;;;5114156;28;20105;-10
2022/11/29 01:43:23;;;;;;;1.63;1.52;;;19.90;43.50;;;;;;5114514;28;20055;-10
2022/11/29 01:45:49;;;;;;;2.10;1.80;;;19.90;43.50;;;;;;5096043;28;20058;-10
2022/11/29 01:48:15;;;;;;;1.67;1.58;;;19.90;43.50;;;;;;5114028;28;20051;-9
2022/11/29 01:50:42;;;;;;;2.10;1.90;;;19.90;43.50;;;;;;5114030;28;20047;-10
2022/11/29 01:53:10;;;;;;;2.10;1.90;;;19.90;43.50;;;;;;5114376;28;20089;-10
2022/11/29 01:55:39;;;;;;;1.98;1.85;;;19.90;43.50;;;;;;5114294;28;20454;-10
2022/11/29 01:58:06;;;;;;;2.00;1.80;;;19.90;43.50;;;;;;5113931;28;20044;-9
2022/11/29 02:00:32;;;;;;;2.05;1.85;;;19.90;43.50;;;;;;5113939;28;20230;-10
2022/11/29 02:03:04;;;;;;;2.05;1.85;;;19.90;44.00;;;;;;5095589;28;20086;-10
2022/11/29 02:05:31;;;;;;;2.33;2.00;;;19.90;43.50;;;;;;5113468;28;20051;-10
2022/11/29 02:07:58;;;;;;;2.38;1.92;;;19.90;43.50;;;;;;5113827;28;20401;-9
2022/11/29 02:10:39;;;;;;;1.98;1.88;;;19.90;43.50;;;;;;5113933;28;20054;-10
2022/11/29 02:13:15;;;;;;;2.05;1.85;;;19.90;43.50;;;;;;5114105;28;20055;-9
2022/11/29 02:15:51;;;;;;;1.80;1.70;;;19.90;43.70;;;;;;5113309;28;20057;-10
2022/11/29 02:19:00;;;;;;;1.92;1.73;;;19.90;43.50;;;;;;5113691;28;20052;-10
2022/11/29 02:21:38;;;;;;;2.13;1.60;;;19.90;43.50;;;;;;5010997;28;20053;-10
2022/11/29 02:24:15;;;;;;;2.30;1.95;;;19.90;43.40;;;;;;5103237;28;20096;-9
2022/11/29 02:26:50;;;;;;;2.15;1.92;;;19.90;43.40;;;;;;5113516;28;20108;-9
2022/11/29 02:29:47;;;;;;;2.97;2.20;;;19.90;43.40;;;;;;5113474;28;20052;-10
2022/11/29 02:32:31;;;;;;;2.10;1.90;;;19.90;43.40;;;;;;5112526;28;20134;-10
2022/11/29 02:35:23;;;;;;;2.30;2.10;;;19.90;43.40;;;;;;5113033;28;20538;-10
2022/11/29 02:38:06;;;;;;;1.98;1.52;;;19.90;43.40;;;;;;5113352;28;20071;-10
2022/11/29 02:41:29;;;;;;;2.83;2.15;;;19.90;43.40;;;;;;5113431;28;20044;-10
2022/11/29 02:44:15;;;;;;;2.00;1.80;;;19.90;43.50;;;;;;5011164;28;20050;-9
2022/11/29 02:46:55;;;;;;;2.20;1.90;;;19.90;43.40;;;;;;5011038;28;20108;-10
2022/11/29 02:49:30;;;;;;;2.03;1.83;;;19.90;43.40;;;;;;5095546;28;20518;-10
2022/11/29 02:52:18;;;;;;;2.08;1.88;;;19.90;43.40;;;;;;5113247;28;20055;-10
2022/11/29 02:54:57;;;;;;;2.05;1.80;;;19.90;43.50;;;;;;5113371;28;20067;-9
2022/11/29 02:58:01;;;;;;;2.05;1.83;;;19.90;43.50;;;;;;5113007;28;20059;-10
2022/11/29 03:00:27;;;;;;;2.25;2.05;;;19.90;44.00;;;;;;5113028;28;20130;-9
2022/11/29 03:03:22;;;;;;;2.00;1.80;;;19.90;43.50;;;;;;5113124;28;20051;-10
2022/11/29 03:05:54;;;;;;;1.80;1.70;;;19.90;43.50;;;;;;5103600;28;20490;-9
2022/11/29 03:08:51;;;;;;;1.98;1.77;;;19.90;43.50;;;;;;5113116;28;20418;-10
2022/11/29 03:11:26;;;;;;;2.45;2.25;;;19.90;43.50;;;;;;5112931;28;20606;-9
2022/11/29 03:14:01;;;;;;;2.03;1.83;;;19.90;43.50;;;;;;5112850;28;20075;-10
2022/11/29 03:16:42;;;;;;;2.08;1.88;;;19.90;43.50;;;;;;5112504;28;20484;-10
2022/11/29 03:19:32;;;;;;;1.57;1.47;;;19.90;43.50;;;;;;5112850;28;20410;-9
2022/11/29 03:22:17;;;;;;;1.80;1.35;;;19.90;43.50;;;;;;5112776;28;20403;-10
2022/11/29 03:24:49;;;;;;;2.10;1.90;;;19.90;43.50;;;;;;5112500;28;20056;-10
2022/11/29 03:27:35;;;;;;;2.13;1.92;;;19.90;43.60;;;;;;5112381;28;20399;-10
2022/11/29 03:30:07;;;;;;;2.53;2.00;;;19.90;43.50;;;;;;5112691;28;20050;-10
2022/11/29 03:33:09;;;;;;;2.25;2.05;;;19.90;43.40;;;;;;5112209;28;20052;-10
2022/11/29 03:36:00;;;;;;;;;;;19.90;43.50;;;;;;5113049;28;20075;-10
2022/11/29 03:38:39;;;;;;;1.80;1.70;;;19.90;43.50;;;;;;5107436;28;20355;-10
2022/11/29 03:41:28;;;;;;;1.80;1.70;;;20.00;43.50;;;;;;5113147;28;20051;-9
2022/11/29 03:44:32;;;;;;;2.05;1.85;;;19.90;43.40;;;;;;5112446;28;20575;-10
2022/11/29 03:47:08;;;;;;;2.50;2.15;;;19.90;43.50;;;;;;5116009;28;20050;-10
2022/11/29 03:50:00;;;;;;;2.05;1.85;;;19.90;43.50;;;;;;5097922;28;20399;-9
2022/11/29 03:52:44;;;;;;;;;;;19.90;43.50;;;;;;5116240;28;20066;-10
2022/11/29 03:55:34;;;;;;;1.92;1.80;;;19.90;43.50;;;;;;5116179;28;19935;-10
2022/11/29 03:58:24;;;;;;;2.13;1.90;;;19.90;43.40;;;;;;5115951;28;20475;-10
2022/11/29 04:01:21;;;;;;;1.90;1.80;;;19.90;43.50;;;;;;5096011;28;20055;-10
2022/11/29 04:04:14;;;;;;;2.28;1.90;;;19.90;43.50;;;;;;5115781;28;20056;-10
2022/11/29 04:06:58;;;;;;;1.63;1.52;;;19.90;43.50;;;;;;5115564;28;20599;-10
2022/11/29 04:10:01;;;;;;;2.13;1.92;;;19.90;43.50;;;;;;5116282;28;20057;-10
2022/11/29 04:12:50;;;;;;;2.55;1.85;;;19.90;44.10;;;;;;5115531;28;20055;-9
2022/11/29 04:15:30;;;;;;;2.10;1.90;;;19.90;43.50;;;;;;5065001;28;20050;-10
2022/11/29 04:18:04;;;;;;;2.10;1.90;;;19.90;43.50;;;;;;5115486;28;20079;-10
2022/11/29 04:20:51;;;;;;;1.80;1.70;;;19.90;43.50;;;;;;5115577;28;20083;-10
2022/11/29 04:23:41;;;;;;;2.20;2.00;;;19.90;43.50;;;;;;5115522;28;20138;-10
2022/11/29 04:26:42;;;;;;;2.10;1.90;;;19.90;43.50;;;;;;5115803;28;20055;-9
2022/11/29 04:29:45;;;;;;;1.85;1.45;;;19.90;43.50;;;;;;5115348;28;20496;-10
2022/11/29 04:32:38;;;;;;;2.08;1.88;;;19.90;43.50;;;;;;5115374;28;20046;-10
2022/11/29 04:35:31;;;;;;;2.60;2.08;;;19.90;43.70;;;;;;5077093;28;20047;-10
2022/11/29 04:38:13;;;;;;;2.35;2.15;;;19.90;43.50;;;;;;5115048;28;20510;-10
2022/11/29 04:40:47;;;;;;;1.83;1.73;;;19.90;43.50;;;;;;5115541;28;20506;-10
2022/11/29 04:43:50;;;;;;;2.10;1.90;;;19.90;43.50;;;;;;5115469;28;20096;-10
2022/11/29 04:46:37;;;;;;;2.25;1.90;;;19.90;43.50;;;;;;5115106;28;20484;-10
2022/11/29 04:49:06;;;;;;;1.80;1.67;;;19.90;43.50;;;;;;5114941;28;20056;-10
2022/11/29 04:51:46;;;;;;;2.03;1.60;;;19.90;43.50;;;;;;5115119;28;20047;-10
2022/11/29 04:54:38;;;;;;;2.53;2.05;;;19.90;43.50;;;;;;5115697;28;20071;-10
2022/11/29 04:57:24;;;;;;;2.58;2.17;;;19.90;43.50;;;;;;5114898;28;20079;-10
2022/11/29 05:00:09;;;;;;;2.55;2.20;;;19.90;43.50;;;;;;5114643;28;20546;-10
2022/11/29 05:02:54;;;;;;;2.05;1.85;;;19.90;43.50;;;;;;5114620;28;20059;-10
2022/11/29 05:05:46;;;;;;;2.65;2.25;;;19.90;43.50;;;;;;5114786;28;20060;-9
2022/11/29 05:08:41;;;;;;;2.33;2.00;;;19.90;43.50;;;;;;5114549;28;20054;-10
2022/11/29 05:11:18;;;;;;;1.98;1.77;;;19.90;43.50;;;;;;5115099;28;20059;-10
2022/11/29 05:14:03;;;;;;;1.98;1.80;;;19.90;43.50;;;;;;5114836;28;20055;-9
2022/11/29 05:16:53;;;;;;;1.77;1.60;;;19.90;43.50;;;;;;5114932;28;20058;-10
2022/11/29 05:19:57;;;;;;;2.05;1.88;;;19.90;43.50;;;;;;5114467;28;20514;-10
2022/11/29 05:22:37;;;;;;;1.85;1.73;;;19.90;43.50;;;;;;5114435;28;20047;-10
2022/11/29 05:25:28;;;;;;;2.10;1.67;;;19.90;43.50;;;;;;5114533;28;20055;-10
2022/11/29 05:28:13;;;;;;;2.40;2.15;;;19.90;43.50;;;;;;5114371;28;20052;-10
2022/11/29 05:31:11;;;;;;;2.30;1.92;;;19.90;43.50;;;;;;5114487;28;20130;-10
2022/11/29 05:33:43;;;;;;;2.60;2.30;;;19.90;43.50;;;;;;5114420;28;20055;-9
2022/11/29 05:36:34;;;;;;;;;;;19.90;43.50;;;;;;5115036;28;20055;-9
2022/11/29 05:39:18;;;;;;;2.28;2.03;;;19.90;43.60;;;;;;5114783;28;19923;-10
2022/11/29 05:42:06;;;;;;;2.20;2.00;;;19.90;43.50;;;;;;5114238;28;20407;-9
2022/11/29 05:44:48;;;;;;;2.33;2.00;;;19.90;43.50;;;;;;5114203;28;20074;-10
2022/11/29 05:47:22;;;;;;;2.05;1.83;;;19.90;43.50;;;;;;5113749;28;20047;-10
2022/11/29 05:50:01;;;;;;;2.10;1.90;;;19.90;43.50;;;;;;5113736;28;20483;-9
2022/11/29 05:52:56;;;;;;;2.10;1.90;;;19.90;43.50;;;;;;5114343;28;20055;-10
2022/11/29 05:55:22;;;;;;;2.38;2.08;;;19.90;43.50;;;;;;5114257;28;20051;-10
2022/11/29 05:58:07;;;;;;;2.20;2.00;;;19.90;43.50;;;;;;5113851;28;20039;-9
2022/11/29 06:00:45;;;;;;;2.58;2.20;;;19.90;43.50;;;;;;5113922;28;20054;-10
2022/11/29 06:03:23;;;;;;;2.42;2.22;;;19.90;43.50;;;;;;5113945;28;20410;-10
2022/11/29 06:06:29;;;;;;;2.20;2.00;;;19.90;43.50;;;;;;5113830;28;20051;-10
2022/11/29 06:09:12;;;;;;;2.03;1.80;;;19.90;43.60;;;;;;5010250;28;20072;-9
2022/11/29 06:11:43;;;;;;;2.30;2.08;;;19.90;43.50;;;;;;5036435;28;20127;-10
2022/11/29 06:14:37;;;;;;;2.30;2.10;;;19.90;43.50;;;;;;5113891;28;20109;-10
2022/11/29 06:17:36;;;;;;;2.28;2.08;;;19.90;43.50;;;;;;5113597;28;20073;-9
2022/11/29 06:20:35;;;;;;;3.55;2.33;;;19.90;43.60;;;;;;5078865;28;20048;-10
2022/11/29 06:23:16;;;;;;;2.30;2.08;;;19.90;43.80;;;;;;5113489;28;20047;-9
2022/11/29 06:25:43;;;;;;;2.78;2.40;;;19.90;43.70;;;;;;5113651;28;20071;-10
2022/11/29 06:28:27;;;;;;;2.08;1.80;;;19.90;43.70;;;;;;5113135;28;20142;-10
2022/11/29 06:31:18;;;;;;;2.00;1.80;;;19.90;43.70;;;;;;5113744;28;20044;-9
2022/11/29 06:34:08;;;;;;;2.22;1.98;;;19.90;44.20;;;;;;5113408;28;20126;-10
2022/11/29 06:37:02;;;;;;;2.60;2.20;;;19.90;43.70;;;;;;5113391;28;20074;-10
2022/11/29 06:39:28;;;;;;;2.95;2.42;;;19.90;43.70;;;;;;5099458;28;20098;-10
2022/11/29 06:41:54;;;;;;;2.40;2.15;;;19.90;43.70;;;;;;5113353;28;20054;-10
2022/11/29 06:44:20;;;;;;;2.63;2.35;;;19.90;43.70;;;;;;5113827;28;20051;-9
2022/11/29 06:46:54;;;;;;;2.58;2.38;;;19.90;43.70;;;;;;5113491;28;20371;-9
2022/11/29 06:49:43;;;;;;;5.32;2.30;;;19.90;43.70;;;;;;5113203;28;20466;-9
2022/11/29 06:52:53;;;;;;;2.45;2.15;;;19.80;43.70;;;;;;5112960;28;20051;-9
2022/11/29 06:55:26;;;;;;;2.17;1.98;;;19.80;43.60;;;;;;5113150;28;20471;-10
2022/11/29 06:58:17;;;;;;;3.17;2.25;;;19.90;43.60;;;;;;5113416;28;20047;-10
2022/11/29 07:00:56;;;;;;;2.40;2.15;;;19.90;43.60;;;;;;5113690;28;20051;-10
2022/11/29 07:03:40;;;;;;;2.83;2.47;;;19.90;43.60;;;;;;5113124;28;20062;-10
2022/11/29 07:06:20;;;;;;;2.60;2.40;;;19.90;43.60;;;;;;5112998;28;20051;-9
2022/11/29 07:08:51;;;;;;;2.55;2.13;;;19.90;43.60;;;;;;5112903;28;20100;-9
2022/11/29 07:11:17;;;;;;;6.45;2.38;;;19.90;43.60;;;;;;5112770;28;20476;-10
2022/11/29 07:13:43;;;;;;;2.83;1.98;;;19.90;43.60;;;;;;5112857;28;20047;-10
2022/11/29 07:16:25;;;;;;;2.97;2.60;;;19.90;43.60;;;;;;5112528;28;20403;-10
2022/11/29 07:19:28;;;;;;;2.40;2.20;;;19.80;43.60;;;;;;5111041;28;20079;-9
2022/11/29 07:22:18;;;;;;;3.50;2.28;;;19.90;43.60;;;;;;5116458;28;20043;-10
2022/11/29 07:24:55;;;;;;;3.05;2.30;;;19.90;43.60;;;;;;5116387;28;20058;-9
2022/11/29 07:27:46;;;;;;;2.42;2.22;;;19.90;43.60;;;;;;5115942;28;20055;-10
2022/11/29 07:30:18;;;;;;;3.28;2.22;;;19.90;43.60;;;;;;5116121;28;20051;-10
2022/11/29 07:32:57;;;;;;;5.03;2.45;;;19.80;43.60;;;;;;5116120;28;20056;-10
2022/11/29 07:35:51;;;;;;;2.92;2.25;;;19.90;43.70;;;;;;5116548;28;20043;-10
2022/11/29 07:38:48;;;;;;;3.83;2.50;;;19.90;43.60;;;;;;5116173;28;20119;-10
2022/11/29 07:41:31;;;;;;;2.42;2.22;;;19.90;43.70;;;;;;5096565;28;20066;-10
2022/11/29 07:44:09;;;;;;;3.28;2.40;;;19.80;43.60;;;;;;5115877;28;20051;-10
2022/11/29 07:46:34;;;;;;;2.90;2.55;;;19.80;43.60;;;;;;5115939;28;20142;-10
2022/11/29 07:49:00;;;;;;;4.03;2.33;;;19.80;43.70;;;;;;5116138;28;20185;-10
2022/11/29 07:51:26;;;;;;;2.85;2.50;;;19.80;43.70;;;;;;5115999;28;20055;-10
2022/11/29 07:53:51;;;;;;;3.13;2.50;;;19.80;43.80;;;;;;5116381;28;20047;-10
2022/11/29 07:56:17;;;;;;;3.03;2.53;;;19.80;43.80;;;;;;5115794;28;20067;-11
2022/11/29 07:58:43;;;;;;;2.58;2.38;;;19.80;43.70;;;;;;5115670;28;20055;-10
2022/11/29 08:01:08;;;;;;;2.10;1.90;;;19.80;43.70;;;;;;5115895;28;20054;-10
2022/11/29 08:03:37;;;;;;;4.25;2.92;;;19.80;43.70;;;;;;5115690;28;20130;-10
2022/11/29 08:06:02;;;;;;;3.03;2.45;;;19.80;43.70;;;;;;5115954;28;20059;-10
2022/11/29 08:08:28;;;;;;;2.92;2.38;;;19.80;43.70;;;;;;5115515;28;20044;-10
2022/11/29 08:10:54;;;;;;;3.85;2.40;;;19.80;43.60;;;;;;5115548;28;20051;-10
2022/11/29 08:13:20;;;;;;;2.55;2.28;;;19.80;43.70;;;;;;5115402;28;20062;-10
2022/11/29 08:15:47;;;;;;;3.03;2.40;;;19.80;43.70;;;;;;5115414;28;20051;-10
2022/11/29 08:18:14;;;;;;;2.80;2.47;;;19.80;43.70;;;;;;5115940;28;20048;-10
2022/11/29 08:20:40;;;;;;;2.75;2.35;;;19.80;43.70;;;;;;5115402;28;20052;-10
2022/11/29 08:23:07;;;;;;;2.72;2.38;;;19.80;43.80;;;;;;5115233;28;20090;-10
2022/11/29 08:25:33;;;;;;;3.17;2.60;;;19.80;43.80;;;;;;5115169;28;20174;-10
2022/11/29 08:28:01;;;;;;;3.20;2.47;;;19.70;43.90;;;;;;5115810;28;20135;-10
2022/11/29 08:30:27;;;;;;;3.08;2.63;;;19.70;43.90;;;;;;5114564;28;20054;-10
2022/11/29 08:32:53;;;;;;;2.80;2.53;;;19.80;43.90;;;;;;5115580;28;20134;-10
2022/11/29 08:35:20;;;;;;;3.10;2.50;;;19.70;44.00;;;;;;5096773;28;20440;-10
2022/11/29 08:37:46;;;;;;;3.05;2.47;;;19.60;44.00;;;;;;5115224;28;20090;-10
2022/11/29 08:40:14;;;;;;;3.45;2.60;;;19.60;44.00;;;;;;5114414;28;20070;-10
2022/11/29 08:42:40;;;;;;;2.90;2.25;;;19.60;44.10;;;;;;5114823;28;20090;-10
2022/11/29 08:45:06;;;;;;;2.83;2.45;;;19.60;44.10;;;;;;5114330;28;20093;-10
2022/11/29 08:47:35;;;;;;;2.63;2.40;;;19.60;44.10;;;;;;5114360;28;20044;-10
2022/11/29 08:50:13;;;;;;;2.88;2.58;;;19.60;44.10;;;;;;5115000;28;20048;-10
2022/11/29 08:55:36;;;;;;;3.78;2.78;;;19.60;44.10;;;;;;5114967;28;20130;-10
2022/11/29 08:58:07;;;;;;;2.40;2.20;;;19.70;44.10;;;;;;5114769;28;20414;-10
2022/11/29 09:00:33;;;;;;;2.42;2.20;;;19.70;44.00;;;;;;5115096;28;20157;-10
2022/11/29 09:05:49;;;;;;;2.58;2.38;;;19.80;43.80;;;;;;5113349;28;20377;-10
2022/11/29 09:08:15;;;;;;;2.67;2.47;;;19.80;43.70;;;;;;5114665;28;20035;-10
2022/11/29 09:10:41;;;;;;;2.47;2.28;;;19.90;43.70;;;;;;5114462;28;20058;-10
2022/11/29 09:13:09;;;;;;;4.75;2.90;;;19.90;43.60;;;;;;5114432;28;20050;-10
2022/11/29 09:15:37;;;;;;;2.88;2.60;;;19.90;43.50;;;;;;5114497;28;20130;-10
2022/11/29 09:18:04;;;;;;;4.32;2.22;;;20.00;43.50;;;;;;5114636;28;20051;-10
2022/11/29 09:20:31;;;;;;;2.95;2.05;;;20.00;43.50;;;;;;5114371;28;20091;-10
2022/11/29 09:22:59;;;;;;;3.60;2.42;;;20.00;43.40;;;;;;5114408;28;20168;-10
2022/11/29 09:25:25;;;;;;;2.70;2.35;;;20.00;43.90;;;;;;5114469;28;20079;-10
2022/11/29 09:27:51;;;;;;;2.60;2.40;;;20.10;43.30;;;;;;5113765;28;20047;-10
2022/11/29 09:30:17;;;;;;;3.80;2.28;;;20.10;43.30;;;;;;5112982;28;20526;-11
2022/11/29 09:32:45;;;;;;;3.17;2.50;;;20.10;43.30;;;;;;5113460;28;20078;-10
2022/11/29 09:35:11;;;;;;;3.30;2.33;;;20.10;43.30;;;;;;5112704;28;20062;-10
2022/11/29 09:37:40;;;;;;;3.50;2.40;;;20.10;43.30;;;;;;5113709;28;20044;-10
2022/11/29 09:40:06;;;;;;;3.78;2.47;;;20.10;43.40;;;;;;5113998;28;20055;-10
2022/11/29 09:42:45;;;;;;;2.60;2.38;;;20.00;43.30;;;;;;5113238;28;20055;-10
2022/11/29 09:45:23;;;;;;;2.42;2.22;;;20.00;43.40;;;;;;5113723;28;20086;-11
2022/11/29 09:47:57;;;;;;;2.95;2.40;;;20.00;43.40;;;;;;5111506;28;20039;-11
2022/11/29 09:50:33;;;;;;;4.47;3.38;;;20.00;43.40;;;;;;5111538;28;20051;-11
2022/11/29 09:53:24;;;;;;;2.85;2.35;;;20.00;43.50;;;;;;5112414;28;20052;-11
2022/11/29 09:56:12;;;;;;;3.45;2.90;;;20.00;43.50;;;;;;5113681;28;20076;-10
2022/11/29 09:58:59;;;;;;;2.85;2.50;;;20.00;43.50;;;;;;5113631;28;20134;-10
2022/11/29 10:01:30;;;;;;;3.00;2.50;;;20.00;43.50;;;;;;5113700;28;20063;-10
2022/11/29 10:04:12;;;;;;;4.43;2.70;;;20.00;43.50;;;;;;5161171;27;20168;-12
2022/11/29 10:06:49;;;;;;;3.60;2.17;;;20.00;43.50;;;;;;5161395;27;20487;-12
2022/11/29 10:09:44;;;;;;;4.90;2.92;;;20.00;43.40;;;;;;5161412;27;20500;-9
2022/11/29 10:12:36;;;;;;;3.22;2.83;;;20.00;43.50;;;;;;5119658;27;20053;-9
2022/11/29 10:15:22;;;;;;;2.97;2.67;;;20.00;43.40;;;;;;5158874;27;20088;-11
2022/11/29 10:17:55;;;;;;;3.05;2.75;;;20.00;43.50;;;;;;5159559;27;20042;-12
2022/11/29 10:20:28;;;;;;;3.45;2.72;;;20.00;43.40;;;;;;5162474;27;20381;-12
2022/11/29 10:23:00;;;;;;;3.30;2.83;;;20.00;43.50;;;;;;5148606;27;20174;-10
2022/11/29 10:25:36;;;;;;;2.95;2.60;;;20.00;43.50;;;;;;5147964;27;20521;-13
2022/11/29 10:28:07;;;;;;;4.45;2.80;;;20.00;43.50;;;;;;5149303;27;20104;-9
2022/11/29 10:30:34;;;;;;;3.80;2.78;;;20.00;43.50;;;;;;5149713;27;20047;-9
2022/11/29 10:33:01;;;;;;;3.10;2.78;;;20.00;43.50;;;;;;5149776;27;20047;-12
2022/11/29 10:35:28;;;;;;;4.10;2.88;;;20.00;44.10;;;;;;5147915;27;20046;-12
2022/11/29 10:37:57;;;;;;;3.60;2.95;;;20.00;43.60;;;;;;5147969;27;20066;-12
2022/11/29 10:40:32;;;;;;;2.90;2.40;;;19.90;43.60;;;;;;5148895;27;20058;-11
2022/11/29 10:42:58;;;;;;;3.05;2.65;;;19.90;43.60;;;;;;5150008;27;20458;-10
2022/11/29 10:45:24;;;;;;;3.50;2.58;;;19.90;43.60;;;;;;5148481;27;20074;-11
2022/11/29 10:47:53;;;;;;;2.95;2.67;;;19.90;43.70;;;;;;5149972;27;20482;-11
2022/11/29 10:50:27;;;;;;;3.60;2.92;;;19.90;43.60;;;;;;5148681;27;20050;-11
2022/11/29 10:52:59;;;;;;;3.72;2.63;;;19.90;43.70;;;;;;5148330;27;20138;-12
2022/11/29 10:55:26;;;;;;;2.50;2.30;;;19.90;43.70;;;;;;5149207;27;20058;-10
2022/11/29 10:58:12;;;;;;;2.97;2.63;;;19.90;43.60;;;;;;5148917;27;20047;-10
2022/11/29 11:01:01;;;;;;;3.65;2.83;;;19.90;43.70;;;;;;5149784;27;20468;-10
2022/11/29 11:03:42;;;;;;;4.57;3.45;;;19.90;43.70;;;;;;5131227;27;20049;-10
2022/11/29 11:06:13;;;;;;;3.75;3.17;;;19.90;43.70;;;;;;5149795;27;20537;-10
2022/11/29 11:08:54;;;;;;;3.22;2.88;;;19.90;43.60;;;;;;5150354;27;20072;-10
2022/11/29 11:11:30;;;;;;;3.10;2.30;;;19.80;43.60;;;;;;5149990;27;20047;-11
2022/11/29 11:14:02;;;;;;;3.58;3.15;;;19.90;43.70;;;;;;5144329;27;20437;-10
2022/11/29 11:16:28;;;;;;;3.17;2.85;;;19.90;43.60;;;;;;5134018;27;20043;-11
2022/11/29 11:18:54;;;;;;;4.53;3.30;;;19.90;43.60;;;;;;5133968;27;20051;-11
2022/11/29 11:21:24;;;;;;;4.00;3.17;;;19.90;43.60;;;;;;5134555;28;20089;-11
2022/11/29 11:23:57;;;;;;;3.90;3.15;;;19.90;43.60;;;;;;5134380;27;20058;-10
2022/11/29 11:26:25;;;;;;;3.42;3.13;;;19.90;43.60;;;;;;5134527;27;20078;-11
2022/11/29 11:28:58;;;;;;;3.30;3.00;;;19.90;43.60;;;;;;5134680;27;20059;-11
2022/11/29 11:31:34;;;;;;;3.15;2.85;;;19.90;43.60;;;;;;5135313;27;20123;-10
2022/11/29 11:34:33;;;;;;;3.65;2.78;;;19.90;43.50;;;;;;5134632;27;20051;-12
2022/11/29 11:37:25;;;;;;;4.28;3.28;;;19.90;43.50;;;;;;5134211;27;20103;-10
2022/11/29 11:39:57;;;;;;;3.33;3.03;;;19.90;43.50;;;;;;5124665;27;20047;-10
2022/11/29 11:42:37;;;;;;;4.22;3.25;;;19.90;43.50;;;;;;5134715;28;20104;-10
2022/11/29 11:45:18;;;;;;;4.83;3.53;;;19.90;43.50;;;;;;5135479;27;20047;-10
2022/11/29 11:47:52;;;;;;;5.55;3.70;;;19.90;43.50;;;;;;5134542;27;20293;-10
2022/11/29 11:50:27;;;;;;;3.63;3.10;;;19.90;43.60;;;;;;5135975;27;20047;-10
2022/11/29 11:53:06;;;;;;;3.50;2.83;;;19.90;43.60;;;;;;5135269;27;20043;-10
2022/11/29 11:55:41;;;;;;;3.88;3.05;;;19.90;43.60;;;;;;5135212;27;20530;-10
2022/11/29 11:58:16;;;;;;;3.80;2.95;;;19.90;43.60;;;;;;5135616;28;20055;-10
2022/11/29 12:00:47;;;;;;;3.58;3.00;;;19.90;43.60;;;;;;5135300;27;20116;-10
2022/11/29 12:03:40;;;;;;;3.67;3.10;;;19.90;43.60;;;;;;5117235;28;20394;-10
2022/11/29 12:06:45;;;;;;;3.92;3.03;;;19.90;43.60;;;;;;5135153;28;20059;-11
2022/11/29 12:09:35;;;;;;;6.72;3.20;;;19.90;43.50;;;;;;5134983;27;20127;-10
2022/11/29 12:12:31;;;;;;;3.83;3.10;;;19.90;43.50;;;;;;5134802;27;20136;-10
2022/11/29 12:15:00;;;;;;;4.05;3.20;;;20.00;43.50;;;;;;5134978;27;20050;-10
2022/11/29 12:17:26;;;;;;;3.65;2.97;;;20.00;43.50;;;;;;5135233;28;20055;-10
2022/11/29 12:20:21;;;;;;;3.95;3.17;;;20.00;43.50;;;;;;5134811;28;20128;-10
2022/11/29 12:23:07;;;;;;;3.90;3.13;;;20.00;43.50;;;;;;5125284;27;20074;-10
2022/11/29 12:25:42;;;;;;;3.80;3.05;;;20.00;43.40;;;;;;5133902;27;20043;-10
2022/11/29 12:28:11;;;;;;;4.07;3.10;;;20.00;43.40;;;;;;5134908;27;20539;-10
2022/11/29 12:30:44;;;;;;;3.85;2.90;;;20.00;43.40;;;;;;5134776;28;20047;-10
2022/11/29 12:33:26;;;;;;;3.28;2.97;;;20.00;43.40;;;;;;5135093;27;20046;-10
2022/11/29 12:35:58;;;;;;;;;;;20.00;43.40;;;;;;5135569;27;20058;-10
2022/11/29 12:38:50;;;;;;;4.05;3.45;;;20.00;43.30;;;;;;5134756;27;19922;-10
2022/11/29 12:41:25;;;;;;;3.78;3.15;;;20.00;43.30;;;;;;5133715;27;20054;-10
2022/11/29 12:44:13;;;;;;;4.85;3.65;;;20.00;43.40;;;;;;5114928;28;20516;-11
2022/11/29 12:46:43;;;;;;;4.22;3.28;;;20.00;43.40;;;;;;5133457;27;20103;-10
2022/11/29 12:49:15;;;;;;;6.53;4.25;;;20.00;43.40;;;;;;5134753;28;20078;-10
2022/11/29 12:52:09;;;;;;;4.53;3.85;;;20.00;43.30;;;;;;5134721;27;20483;-10
2022/11/29 12:54:52;;;;;;;3.95;3.40;;;20.00;43.30;;;;;;5134654;27;20558;-10
2022/11/29 12:57:28;;;;;;;4.60;3.70;;;20.10;43.30;;;;;;5133221;27;20051;-11
2022/11/29 13:00:03;;;;;;;5.85;4.07;;;20.10;43.30;;;;;;5131639;27;20070;-11
2022/11/29 13:02:53;;;;;;;4.93;3.78;;;20.10;43.20;;;;;;5132566;28;20402;-11
2022/11/29 13:05:49;;;;;;;4.07;3.63;;;20.10;43.20;;;;;;5133277;27;20330;-11
2022/11/29 13:08:21;;;;;;;5.22;4.28;;;20.10;43.30;;;;;;5133254;28;20130;-11
2022/11/29 13:11:11;;;;;;;4.88;4.00;;;20.10;43.30;;;;;;5133290;28;20058;-10
2022/11/29 13:13:42;;;;;;;4.95;4.43;;;20.10;43.80;;;;;;5133794;27;20460;-10
2022/11/29 13:16:33;;;;;;;6.47;3.80;;;20.10;43.30;;;;;;5134037;28;20042;-10
2022/11/29 13:19:13;;;;;;;5.00;3.80;;;20.10;43.30;;;;;;5133183;28;20078;-10
2022/11/29 13:21:58;;;;;;;4.23;3.20;;;20.10;43.30;;;;;;5134542;27;20142;-10
2022/11/29 13:24:39;;;;;;;5.22;3.80;;;20.10;43.30;;;;;;5133867;27;20635;-10
2022/11/29 13:27:06;;;;;;;5.00;4.18;;;20.10;43.30;;;;;;5133958;27;20053;-10
2022/11/29 13:29:33;;;;;;;4.70;3.60;;;20.10;43.30;;;;;;5134109;27;20043;-10
2022/11/29 13:32:00;;;;;;;4.72;3.67;;;20.00;43.30;;;;;;5133829;27;20043;-10
2022/11/29 13:34:41;;;;;;;5.13;4.22;;;20.10;43.40;;;;;;5133718;28;20483;-10
2022/11/29 13:37:34;;;;;;;4.22;3.67;;;20.10;43.40;;;;;;5133556;27;20493;-10
2022/11/29 13:40:20;;;;;;;5.07;4.10;;;20.00;43.40;;;;;;5133094;27;20133;-10
2022/11/29 13:43:16;;;;;;;4.25;3.47;;;20.00;43.40;;;;;;5118615;27;20396;-10
2022/11/29 13:46:20;;;;;;;5.18;4.07;;;20.00;43.40;;;;;;5131919;27;20415;-10
2022/11/29 13:48:51;;;;;;;5.55;4.50;;;20.00;43.70;;;;;;5133813;28;20047;-10